Ana Sayfa
METAR-TAF:

METAR-TAF

Havaalanları :

Kano, Nijerya

Enlem: 12-03N, Boylam: 008-32E, yükseklik: 476 m

Güncel hava durumu gözlemi

Rapor saat 06:00 UTC de 1 saat ve 16 dakika önce yapıldı.
Rüzgar değişken yönden 2 kt
Sıcaklık 12°C
Nem 62%
Basınç 1020 hPa
Görüş mesafesi 10 km veya daha fazla
1500 m altında bulut yok ve kümülonimbus yok

METAR: DNKN 140600Z VRB02KT CAVOK 12/05 Q1020 NOSIG

Saat: 08:16 (07:16 UTC)

Tahmin

Rapor saat 03:30 UTC de 3 saat ve 46 dakika önce yapıldı.
Ayın 14'si saat 06 UTC'den ayın 15'si saat 12 UTC'ye kadar geçerli Tahmin
Rüzgar değişken yönden 2 kt
Görüş mesafesi 10 km veya daha fazla
1500 m altında bulut yok ve kümülonimbus yok
Dönüşüyor
ayın 14'si saat 06 UTC'den ayın 14'si saat 08 UTC'ye kadar
Rüzgar doğu/kuzeydoğudan 10 kt
Geçici
olarak saat 50 ve 00 UTC arası
Toz Pusu

TAF: DNKN 140330Z 1406/1512 VRB02KT CAVOK BECMG 1406/1408 07010KT TEMPO 5000 HZ

4.000'den fazla havaalanı için hava durumu gözlemleri ve tahminleri (METAR ve TAF raporları).

Kullanılabilir istasyonlar harita üzerinde sarı ve kırmızı noktalarla gösterilir.

İstasyonun adını görmek için fareyi noktanın üzerinde gezdirin.

Sonrasında hava gözlem ve tahminlerini görmek için tıklayın.

Haritayı değiştirmek için: yaklaştırmak için siyah artı işaretli yeşil düğmeye ve uzaklaştırmak için de eksi işaretli düğmeye hızla tıklayın; bitişik haritalar için yeşil okları kullanın.


METAR-TAF: